createdAt,value
2023-01-19T00:01:05.262Z,27
2023-01-19T00:16:05.402Z,28
2023-01-19T00:31:05.321Z,30
2023-01-19T00:46:05.332Z,31
2023-01-19T01:01:05.255Z,30
2023-01-19T01:16:05.044Z,29
2023-01-19T01:31:05.146Z,43
2023-01-19T01:46:05.057Z,50
2023-01-19T02:01:05.324Z,54
2023-01-19T02:16:05.378Z,59
2023-01-19T02:31:05.316Z,62
2023-01-19T02:46:04.980Z,57
2023-01-19T03:01:05.545Z,56
2023-01-19T03:16:05.067Z,53
2023-01-19T03:31:05.257Z,54
2023-01-19T03:46:05.436Z,55
2023-01-19T04:01:04.695Z,53
2023-01-19T04:16:05.068Z,53
2023-01-19T04:31:04.531Z,54
2023-01-19T04:46:05.469Z,57
2023-01-19T05:01:04.622Z,66
2023-01-19T05:16:04.609Z,62
2023-01-19T05:31:05.271Z,62
2023-01-19T05:46:04.974Z,60
2023-01-19T06:01:05.098Z,81
2023-01-19T06:16:04.556Z,99
2023-01-19T06:31:04.914Z,84
2023-01-19T06:46:05.559Z,89
2023-01-19T07:01:05.576Z,71
2023-01-19T07:16:06.653Z,72
2023-01-19T07:31:05.195Z,63
2023-01-19T07:46:04.505Z,52
2023-01-19T08:01:04.398Z,51
2023-01-19T08:16:04.795Z,49
2023-01-19T08:31:18.461Z,52
2023-01-19T08:46:05.066Z,54
2023-01-19T09:01:04.439Z,53
2023-01-19T09:16:05.634Z,51
2023-01-19T09:31:05.487Z,52
2023-01-19T09:46:05.043Z,47
2023-01-19T10:01:04.856Z,52
2023-01-19T10:16:04.892Z,53
2023-01-19T10:31:04.918Z,51
2023-01-19T10:46:05.339Z,45
2023-01-19T11:01:04.897Z,46
2023-01-19T11:16:05.142Z,45
2023-01-19T11:31:05.541Z,45
2023-01-19T11:46:05.114Z,46
2023-01-19T12:01:05.085Z,48
2023-01-19T12:16:04.828Z,38
2023-01-19T12:31:05.068Z,37
2023-01-19T12:46:05.483Z,36
2023-01-19T13:01:04.616Z,36
2023-01-19T13:16:04.613Z,30
2023-01-19T13:31:04.762Z,26
2023-01-19T13:46:04.977Z,24
2023-01-19T14:01:04.578Z,30
2023-01-19T14:16:04.996Z,22
2023-01-19T14:31:05.224Z,32
2023-01-19T14:46:05.369Z,28
2023-01-19T15:01:05.533Z,33
2023-01-19T15:16:04.646Z,36
2023-01-19T15:31:04.852Z,42
2023-01-19T15:46:05.241Z,58
2023-01-19T16:01:05.205Z,53
2023-01-19T16:16:05.007Z,51
2023-01-19T16:31:05.350Z,53
2023-01-19T16:46:05.831Z,64
2023-01-19T17:01:05.686Z,48
2023-01-19T17:16:05.393Z,54
2023-01-19T17:31:04.877Z,52
2023-01-19T17:46:04.972Z,47
2023-01-19T18:01:05.471Z,45
2023-01-19T18:16:04.777Z,44
2023-01-19T18:31:05.322Z,35
2023-01-19T18:46:05.355Z,43
2023-01-19T19:01:05.218Z,42
2023-01-19T19:16:04.835Z,37
2023-01-19T19:31:05.250Z,37
2023-01-19T19:46:05.401Z,39
2023-01-19T20:01:04.956Z,44
2023-01-19T20:16:04.821Z,60
2023-01-19T20:31:04.923Z,46
2023-01-19T20:46:05.356Z,45
2023-01-19T21:01:04.770Z,48
2023-01-19T21:16:05.177Z,72
2023-01-19T21:31:04.573Z,57
2023-01-19T21:46:04.566Z,46
2023-01-19T22:01:04.688Z,36
2023-01-19T22:16:05.238Z,42
2023-01-19T22:31:04.645Z,37
2023-01-19T22:46:06.655Z,35
2023-01-19T23:01:05.342Z,38
2023-01-19T23:16:05.486Z,40
2023-01-19T23:31:04.845Z,39
2023-01-19T23:46:05.772Z,34
